sensor_id;sensor_type;location;lat;lon;timestamp;P1;durP1;ratioP1;P2;durP2;ratioP2
81231;SDS011;70703;55.652;37.710;2023-07-13T12:26:01;9.50;;;4.38;;
81231;SDS011;70703;55.652;37.710;2023-07-13T12:26:17;11.50;;;5.25;;
81231;SDS011;70703;55.652;37.710;2023-07-13T12:26:30;12.70;;;5.50;;
81231;SDS011;70703;55.652;37.710;2023-07-13T12:26:42;13.50;;;5.50;;
81231;SDS011;70703;55.652;37.710;2023-07-13T12:26:59;12.38;;;5.45;;
81231;SDS011;70703;55.652;37.710;2023-07-13T12:27:18;12.48;;;5.55;;
81231;SDS011;70703;55.652;37.710;2023-07-13T12:27:30;13.52;;;5.88;;
81231;SDS011;70703;55.652;37.710;2023-07-13T12:27:46;12.05;;;5.80;;
81231;SDS011;70703;55.652;37.710;2023-07-13T12:28:00;14.15;;;5.93;;
81231;SDS011;70703;55.652;37.710;2023-07-13T12:28:32;15.15;;;5.50;;
81231;SDS011;70703;55.652;37.710;2023-07-13T12:28:46;13.40;;;5.55;;
81231;SDS011;70703;55.652;37.710;2023-07-13T12:29:01;11.73;;;5.80;;
81231;SDS011;70703;55.652;37.710;2023-07-13T12:29:18;11.35;;;5.75;;
81231;SDS011;70703;55.652;37.710;2023-07-13T12:29:32;12.07;;;5.57;;
81231;SDS011;70703;55.652;37.710;2023-07-13T12:29:49;13.70;;;5.28;;
81231;SDS011;70703;55.652;37.710;2023-07-13T12:30:02;12.32;;;5.30;;
81231;SDS011;70703;55.652;37.710;2023-07-13T12:30:26;11.98;;;5.47;;
81231;SDS011;70703;55.652;37.710;2023-07-13T12:30:59;12.80;;;5.20;;
81231;SDS011;70703;55.652;37.710;2023-07-13T12:31:46;11.10;;;5.10;;
81231;SDS011;70703;55.652;37.710;2023-07-13T12:32:00;10.98;;;5.13;;
81231;SDS011;70703;55.652;37.710;2023-07-13T12:32:14;10.93;;;5.03;;
81231;SDS011;70703;55.652;37.710;2023-07-13T12:32:28;9.75;;;5.13;;
81231;SDS011;70703;55.652;37.710;2023-07-13T12:32:41;11.20;;;5.60;;
81231;SDS011;70703;55.652;37.710;2023-07-13T12:32:57;14.13;;;5.82;;
81231;SDS011;70703;55.652;37.710;2023-07-13T12:33:11;14.80;;;5.70;;
81231;SDS011;70703;55.652;37.710;2023-07-13T12:33:24;14.55;;;5.88;;
81231;SDS011;70703;55.652;37.710;2023-07-13T12:33:39;13.13;;;6.07;;
81231;SDS011;70703;55.652;37.710;2023-07-13T12:33:56;13.60;;;5.93;;
81231;SDS011;70703;55.652;37.710;2023-07-13T12:34:10;14.52;;;5.63;;
81231;SDS011;70703;55.652;37.710;2023-07-13T12:34:26;11.07;;;5.38;;
81231;SDS011;70703;55.652;37.710;2023-07-13T12:34:50;9.95;;;5.35;;
81231;SDS011;70703;55.652;37.710;2023-07-13T12:35:12;12.55;;;5.63;;
81231;SDS011;70703;55.652;37.710;2023-07-13T12:35:26;11.10;;;5.43;;
81231;SDS011;70703;55.652;37.710;2023-07-13T12:35:42;10.85;;;5.50;;
81231;SDS011;70703;55.652;37.710;2023-07-13T12:35:57;11.90;;;5.50;;
81231;SDS011;70703;55.652;37.710;2023-07-13T12:36:12;12.77;;;5.53;;
81231;SDS011;70703;55.652;37.710;2023-07-13T12:36:23;12.20;;;5.60;;
81231;SDS011;70703;55.652;37.710;2023-07-13T12:36:36;11.50;;;5.70;;
81231;SDS011;70703;55.652;37.710;2023-07-13T12:36:50;12.02;;;6.35;;
81231;SDS011;70703;55.652;37.710;2023-07-13T12:37:08;15.45;;;7.05;;
81231;SDS011;70703;55.652;37.710;2023-07-13T12:37:23;16.10;;;7.10;;
81231;SDS011;70703;55.652;37.710;2023-07-13T12:37:35;14.50;;;6.97;;
81231;SDS011;70703;55.652;37.710;2023-07-13T12:37:47;13.13;;;6.70;;
81231;SDS011;70703;55.652;37.710;2023-07-13T12:37:59;13.45;;;6.60;;
81231;SDS011;70703;55.652;37.710;2023-07-13T12:38:12;13.65;;;6.80;;
81231;SDS011;70703;55.652;37.710;2023-07-13T12:38:25;12.23;;;6.88;;
81231;SDS011;70703;55.652;37.710;2023-07-13T12:38:38;13.02;;;6.70;;
81231;SDS011;70703;55.652;37.710;2023-07-13T12:38:51;13.70;;;6.40;;
81231;SDS011;70703;55.652;37.710;2023-07-13T12:39:12;13.32;;;6.63;;
81231;SDS011;70703;55.652;37.710;2023-07-13T12:39:28;12.38;;;6.97;;
81231;SDS011;70703;55.652;37.710;2023-07-13T12:39:45;15.25;;;7.30;;
81231;SDS011;70703;55.652;37.710;2023-07-13T12:39:59;14.40;;;6.63;;
81231;SDS011;70703;55.652;37.710;2023-07-13T12:40:12;14.20;;;6.32;;
81231;SDS011;70703;55.652;37.710;2023-07-13T12:40:26;15.02;;;6.45;;
81231;SDS011;70703;55.652;37.710;2023-07-13T12:40:43;13.98;;;6.55;;
81231;SDS011;70703;55.652;37.710;2023-07-13T12:40:55;13.20;;;6.55;;
81231;SDS011;70703;55.652;37.710;2023-07-13T12:41:10;13.15;;;6.53;;
81231;SDS011;70703;55.652;37.710;2023-07-13T12:41:21;11.95;;;6.20;;
81231;SDS011;70703;55.652;37.710;2023-07-13T12:41:34;11.43;;;6.28;;
81231;SDS011;70703;55.652;37.710;2023-07-13T12:41:47;11.27;;;6.13;;
81231;SDS011;70703;55.652;37.710;2023-07-13T12:42:09;10.45;;;5.70;;
81231;SDS011;70703;55.652;37.710;2023-07-13T12:42:31;12.30;;;5.50;;
81231;SDS011;70703;55.652;37.710;2023-07-13T12:42:45;12.65;;;5.60;;
81231;SDS011;70703;55.652;37.710;2023-07-13T12:42:59;12.93;;;5.53;;
81231;SDS011;70703;55.652;37.710;2023-07-13T12:43:14;12.30;;;5.45;;
81231;SDS011;70703;55.652;37.710;2023-07-13T12:43:26;11.85;;;5.72;;
81231;SDS011;70703;55.652;37.710;2023-07-13T12:43:40;13.95;;;5.80;;
81231;SDS011;70703;55.652;37.710;2023-07-13T12:43:52;14.60;;;5.60;;
81231;SDS011;70703;55.652;37.710;2023-07-13T12:44:03;12.27;;;5.32;;
81231;SDS011;70703;55.652;37.710;2023-07-13T12:44:19;11.50;;;5.18;;
81231;SDS011;70703;55.652;37.710;2023-07-13T12:44:39;11.60;;;5.35;;
81231;SDS011;70703;55.652;37.710;2023-07-13T12:44:53;12.73;;;5.43;;
81231;SDS011;70703;55.652;37.710;2023-07-13T12:45:12;12.90;;;5.28;;
81231;SDS011;70703;55.652;37.710;2023-07-13T12:45:30;11.82;;;5.07;;
81231;SDS011;70703;55.652;37.710;2023-07-13T12:45:54;13.13;;;4.95;;
81231;SDS011;70703;55.652;37.710;2023-07-13T12:46:14;11.50;;;5.20;;
81231;SDS011;70703;55.652;37.710;2023-07-13T12:46:29;12.50;;;5.43;;
81231;SDS011;70703;55.652;37.710;2023-07-13T12:46:52;15.30;;;5.40;;
81231;SDS011;70703;55.652;37.710;2023-07-13T12:47:09;13.25;;;5.68;;
81231;SDS011;70703;55.652;37.710;2023-07-13T12:47:23;11.18;;;5.72;;
81231;SDS011;70703;55.652;37.710;2023-07-13T12:47:39;11.82;;;5.82;;
81231;SDS011;70703;55.652;37.710;2023-07-13T12:47:53;11.85;;;5.72;;
81231;SDS011;70703;55.652;37.710;2023-07-13T12:48:12;14.02;;;5.72;;
81231;SDS011;70703;55.652;37.710;2023-07-13T12:48:27;13.00;;;5.28;;
81231;SDS011;70703;55.652;37.710;2023-07-13T12:48:39;12.90;;;5.25;;
81231;SDS011;70703;55.652;37.710;2023-07-13T12:48:53;16.80;;;5.63;;
81231;SDS011;70703;55.652;37.710;2023-07-13T12:49:06;15.38;;;5.50;;
81231;SDS011;70703;55.652;37.710;2023-07-13T12:49:20;12.70;;;5.32;;
81231;SDS011;70703;55.652;37.710;2023-07-13T12:49:39;11.65;;;5.13;;
81231;SDS011;70703;55.652;37.710;2023-07-13T12:49:53;10.98;;;4.80;;
81231;SDS011;70703;55.652;37.710;2023-07-13T12:50:12;10.18;;;5.10;;
81231;SDS011;70703;55.652;37.710;2023-07-13T12:50:30;10.38;;;5.30;;
81231;SDS011;70703;55.652;37.710;2023-07-13T12:50:46;11.60;;;4.93;;
81231;SDS011;70703;55.652;37.710;2023-07-13T12:51:00;14.13;;;5.15;;
81231;SDS011;70703;55.652;37.710;2023-07-13T12:51:13;12.93;;;5.03;;
81231;SDS011;70703;55.652;37.710;2023-07-13T12:51:25;13.10;;;5.30;;
81231;SDS011;70703;55.652;37.710;2023-07-13T12:51:38;12.88;;;5.70;;
81231;SDS011;70703;55.652;37.710;2023-07-13T12:51:55;10.40;;;5.35;;
81231;SDS011;70703;55.652;37.710;2023-07-13T12:52:15;12.77;;;5.25;;
81231;SDS011;70703;55.652;37.710;2023-07-13T12:52:29;14.90;;;5.57;;
81231;SDS011;70703;55.652;37.710;2023-07-13T12:52:42;12.38;;;5.20;;
81231;SDS011;70703;55.652;37.710;2023-07-13T12:52:59;11.60;;;5.10;;
81231;SDS011;70703;55.652;37.710;2023-07-13T12:53:16;12.90;;;5.65;;
81231;SDS011;70703;55.652;37.710;2023-07-13T12:53:30;12.68;;;5.88;;
81231;SDS011;70703;55.652;37.710;2023-07-13T12:53:55;11.73;;;5.45;;
81231;SDS011;70703;55.652;37.710;2023-07-13T12:54:13;10.52;;;5.00;;
81231;SDS011;70703;55.652;37.710;2023-07-13T12:54:29;10.20;;;5.18;;
81231;SDS011;70703;55.652;37.710;2023-07-13T12:54:41;12.63;;;5.40;;
81231;SDS011;70703;55.652;37.710;2023-07-13T12:54:53;14.15;;;5.45;;
81231;SDS011;70703;55.652;37.710;2023-07-13T12:55:11;13.35;;;5.53;;
81231;SDS011;70703;55.652;37.710;2023-07-13T12:55:25;11.65;;;5.43;;
81231;SDS011;70703;55.652;37.710;2023-07-13T12:55:46;12.38;;;5.20;;
81231;SDS011;70703;55.652;37.710;2023-07-13T12:56:02;11.57;;;5.53;;
81231;SDS011;70703;55.652;37.710;2023-07-13T12:56:17;56.03;;;47.30;;
81231;SDS011;70703;55.652;37.710;2023-07-13T12:56:32;127.70;;;113.40;;
81231;SDS011;70703;55.652;37.710;2023-07-13T12:56:44;87.43;;;74.60;;
81231;SDS011;70703;55.652;37.710;2023-07-13T12:57:01;21.33;;;9.13;;
81231;SDS011;70703;55.652;37.710;2023-07-13T12:57:15;16.20;;;5.95;;
81231;SDS011;70703;55.652;37.710;2023-07-13T12:57:29;11.85;;;5.90;;
81231;SDS011;70703;55.652;37.710;2023-07-13T12:57:41;12.60;;;6.07;;
81231;SDS011;70703;55.652;37.710;2023-07-13T12:57:59;13.38;;;6.30;;
81231;SDS011;70703;55.652;37.710;2023-07-13T12:58:16;12.75;;;6.53;;
81231;SDS011;70703;55.652;37.710;2023-07-13T12:58:35;14.52;;;6.53;;
81231;SDS011;70703;55.652;37.710;2023-07-13T12:58:50;14.18;;;5.80;;
81231;SDS011;70703;55.652;37.710;2023-07-13T12:59:10;11.80;;;5.45;;
81231;SDS011;70703;55.652;37.710;2023-07-13T12:59:29;12.95;;;5.32;;
81231;SDS011;70703;55.652;37.710;2023-07-13T12:59:47;12.38;;;5.25;;
81231;SDS011;70703;55.652;37.710;2023-07-13T13:00:03;12.55;;;5.38;;
81231;SDS011;70703;55.652;37.710;2023-07-13T13:00:35;11.25;;;4.95;;
81231;SDS011;70703;55.652;37.710;2023-07-13T13:00:50;11.43;;;5.07;;
81231;SDS011;70703;55.652;37.710;2023-07-13T13:01:08;11.57;;;5.38;;
81231;SDS011;70703;55.652;37.710;2023-07-13T13:01:25;12.27;;;5.25;;
81231;SDS011;70703;55.652;37.710;2023-07-13T13:01:45;12.07;;;5.30;;
81231;SDS011;70703;55.652;37.710;2023-07-13T13:02:02;15.63;;;5.28;;
81231;SDS011;70703;55.652;37.710;2023-07-13T13:02:33;12.85;;;5.03;;
81231;SDS011;70703;55.652;37.710;2023-07-13T13:02:45;13.48;;;5.25;;
81231;SDS011;70703;55.652;37.710;2023-07-13T13:03:02;11.88;;;5.18;;
81231;SDS011;70703;55.652;37.710;2023-07-13T13:03:18;10.45;;;5.00;;
81231;SDS011;70703;55.652;37.710;2023-07-13T13:03:34;11.30;;;5.40;;
81231;SDS011;70703;55.652;37.710;2023-07-13T13:03:49;12.30;;;5.55;;
81231;SDS011;70703;55.652;37.710;2023-07-13T13:04:03;12.73;;;5.35;;
81231;SDS011;70703;55.652;37.710;2023-07-13T13:04:17;12.57;;;5.32;;
81231;SDS011;70703;55.652;37.710;2023-07-13T13:04:32;11.73;;;5.20;;
81231;SDS011;70703;55.652;37.710;2023-07-13T13:04:44;10.52;;;5.13;;
81231;SDS011;70703;55.652;37.710;2023-07-13T13:04:57;12.57;;;5.35;;
81231;SDS011;70703;55.652;37.710;2023-07-13T13:05:09;14.27;;;5.50;;
81231;SDS011;70703;55.652;37.710;2023-07-13T13:05:26;12.90;;;5.03;;
81231;SDS011;70703;55.652;37.710;2023-07-13T13:05:41;11.55;;;5.00;;
81231;SDS011;70703;55.652;37.710;2023-07-13T13:05:57;11.27;;;4.93;;
81231;SDS011;70703;55.652;37.710;2023-07-13T13:06:21;12.30;;;4.80;;
81231;SDS011;70703;55.652;37.710;2023-07-13T13:06:35;13.73;;;5.00;;
81231;SDS011;70703;55.652;37.710;2023-07-13T13:06:48;13.05;;;5.00;;
81231;SDS011;70703;55.652;37.710;2023-07-13T13:07:11;12.70;;;5.22;;
81231;SDS011;70703;55.652;37.710;2023-07-13T13:07:24;13.13;;;5.50;;
81231;SDS011;70703;55.652;37.710;2023-07-13T13:07:37;13.43;;;5.60;;
81231;SDS011;70703;55.652;37.710;2023-07-13T13:07:49;13.18;;;5.65;;
81231;SDS011;70703;55.652;37.710;2023-07-13T13:08:00;11.85;;;5.38;;
81231;SDS011;70703;55.652;37.710;2023-07-13T13:08:13;10.38;;;5.38;;
81231;SDS011;70703;55.652;37.710;2023-07-13T13:08:25;9.90;;;5.32;;
81231;SDS011;70703;55.652;37.710;2023-07-13T13:08:36;11.07;;;5.43;;
81231;SDS011;70703;55.652;37.710;2023-07-13T13:08:48;12.07;;;5.43;;
81231;SDS011;70703;55.652;37.710;2023-07-13T13:09:01;13.18;;;5.65;;
81231;SDS011;70703;55.652;37.710;2023-07-13T13:09:15;12.93;;;5.80;;
81231;SDS011;70703;55.652;37.710;2023-07-13T13:09:29;11.88;;;5.72;;
81231;SDS011;70703;55.652;37.710;2023-07-13T13:09:41;10.43;;;5.63;;
81231;SDS011;70703;55.652;37.710;2023-07-13T13:09:55;11.18;;;5.40;;
81231;SDS011;70703;55.652;37.710;2023-07-13T13:10:25;12.98;;;5.53;;
81231;SDS011;70703;55.652;37.710;2023-07-13T13:10:38;10.13;;;5.30;;
81231;SDS011;70703;55.652;37.710;2023-07-13T13:10:52;9.68;;;5.40;;
81231;SDS011;70703;55.652;37.710;2023-07-13T13:11:04;10.95;;;5.53;;
81231;SDS011;70703;55.652;37.710;2023-07-13T13:11:18;11.40;;;5.38;;
81231;SDS011;70703;55.652;37.710;2023-07-13T13:11:31;11.43;;;5.43;;
81231;SDS011;70703;55.652;37.710;2023-07-13T13:11:43;12.93;;;5.60;;
81231;SDS011;70703;55.652;37.710;2023-07-13T13:11:55;13.07;;;5.53;;
81231;SDS011;70703;55.652;37.710;2023-07-13T13:12:07;14.63;;;5.53;;
81231;SDS011;70703;55.652;37.710;2023-07-13T13:12:19;14.68;;;5.82;;
81231;SDS011;70703;55.652;37.710;2023-07-13T13:12:31;18.08;;;5.90;;
81231;SDS011;70703;55.652;37.710;2023-07-13T13:12:43;15.90;;;5.75;;
81231;SDS011;70703;55.652;37.710;2023-07-13T13:12:55;11.40;;;5.45;;
81231;SDS011;70703;55.652;37.710;2023-07-13T13:13:07;11.35;;;5.35;;
81231;SDS011;70703;55.652;37.710;2023-07-13T13:13:20;12.35;;;5.70;;
81231;SDS011;70703;55.652;37.710;2023-07-13T13:13:32;12.27;;;5.80;;
81231;SDS011;70703;55.652;37.710;2023-07-13T13:13:44;14.20;;;5.70;;
81231;SDS011;70703;55.652;37.710;2023-07-13T13:13:58;13.57;;;5.35;;
81231;SDS011;70703;55.652;37.710;2023-07-13T13:14:10;12.85;;;5.55;;
81231;SDS011;70703;55.652;37.710;2023-07-13T13:14:21;14.38;;;5.97;;
81231;SDS011;70703;55.652;37.710;2023-07-13T13:14:34;14.68;;;5.90;;
81231;SDS011;70703;55.652;37.710;2023-07-13T13:14:47;14.23;;;5.88;;
81231;SDS011;70703;55.652;37.710;2023-07-13T13:14:59;15.45;;;6.13;;
81231;SDS011;70703;55.652;37.710;2023-07-13T13:15:10;14.95;;;6.25;;
81231;SDS011;70703;55.652;37.710;2023-07-13T13:15:23;12.05;;;5.80;;
81231;SDS011;70703;55.652;37.710;2023-07-13T13:15:35;11.15;;;5.65;;
81231;SDS011;70703;55.652;37.710;2023-07-13T13:15:47;12.35;;;5.47;;
81231;SDS011;70703;55.652;37.710;2023-07-13T13:16:01;13.90;;;5.65;;
81231;SDS011;70703;55.652;37.710;2023-07-13T13:16:19;15.40;;;5.78;;
81231;SDS011;70703;55.652;37.710;2023-07-13T13:16:33;16.10;;;5.88;;
81231;SDS011;70703;55.652;37.710;2023-07-13T13:16:46;14.57;;;5.90;;
81231;SDS011;70703;55.652;37.710;2023-07-13T13:17:01;13.02;;;5.70;;
81231;SDS011;70703;55.652;37.710;2023-07-13T13:17:16;13.95;;;6.10;;
81231;SDS011;70703;55.652;37.710;2023-07-13T13:17:30;15.10;;;6.38;;
81231;SDS011;70703;55.652;37.710;2023-07-13T13:17:42;13.82;;;6.05;;
81231;SDS011;70703;55.652;37.710;2023-07-13T13:17:54;13.40;;;6.05;;
81231;SDS011;70703;55.652;37.710;2023-07-13T13:18:10;14.85;;;5.97;;
81231;SDS011;70703;55.652;37.710;2023-07-13T13:18:27;13.90;;;5.90;;
81231;SDS011;70703;55.652;37.710;2023-07-13T13:18:41;12.18;;;5.88;;
81231;SDS011;70703;55.652;37.710;2023-07-13T13:18:54;12.07;;;5.88;;
81231;SDS011;70703;55.652;37.710;2023-07-13T13:19:12;12.45;;;5.80;;
81231;SDS011;70703;55.652;37.710;2023-07-13T13:19:27;12.70;;;6.07;;
81231;SDS011;70703;55.652;37.710;2023-07-13T13:19:40;13.05;;;6.22;;
81231;SDS011;70703;55.652;37.710;2023-07-13T13:19:52;12.35;;;6.20;;
81231;SDS011;70703;55.652;37.710;2023-07-13T13:20:11;11.63;;;5.88;;
81231;SDS011;70703;55.652;37.710;2023-07-13T13:20:26;13.93;;;5.80;;
81231;SDS011;70703;55.652;37.710;2023-07-13T13:20:38;12.57;;;5.80;;
81231;SDS011;70703;55.652;37.710;2023-07-13T13:20:51;12.48;;;6.10;;
81231;SDS011;70703;55.652;37.710;2023-07-13T13:21:03;12.70;;;6.00;;
81231;SDS011;70703;55.652;37.710;2023-07-13T13:21:15;13.77;;;5.93;;
81231;SDS011;70703;55.652;37.710;2023-07-13T13:21:26;13.00;;;5.72;;
81231;SDS011;70703;55.652;37.710;2023-07-13T13:21:37;13.20;;;5.90;;
81231;SDS011;70703;55.652;37.710;2023-07-13T13:21:49;11.52;;;5.95;;
81231;SDS011;70703;55.652;37.710;2023-07-13T13:22:03;12.35;;;6.05;;
81231;SDS011;70703;55.652;37.710;2023-07-13T13:22:17;13.20;;;5.80;;
81231;SDS011;70703;55.652;37.710;2023-07-13T13:22:28;13.93;;;5.85;;
81231;SDS011;70703;55.652;37.710;2023-07-13T13:22:40;12.70;;;5.90;;
81231;SDS011;70703;55.652;37.710;2023-07-13T13:22:52;11.45;;;5.78;;
81231;SDS011;70703;55.652;37.710;2023-07-13T13:23:04;10.50;;;5.70;;
81231;SDS011;70703;55.652;37.710;2023-07-13T13:23:21;11.65;;;5.88;;
81231;SDS011;70703;55.652;37.710;2023-07-13T13:23:33;11.90;;;5.95;;
81231;SDS011;70703;55.652;37.710;2023-07-13T13:23:44;13.10;;;5.78;;
81231;SDS011;70703;55.652;37.710;2023-07-13T13:23:56;14.52;;;5.72;;
81231;SDS011;70703;55.652;37.710;2023-07-13T13:24:10;15.40;;;5.82;;
81231;SDS011;70703;55.652;37.710;2023-07-13T13:24:26;14.55;;;5.88;;
81231;SDS011;70703;55.652;37.710;2023-07-13T13:24:38;13.52;;;5.57;;
81231;SDS011;70703;55.652;37.710;2023-07-13T13:24:51;11.68;;;5.38;;
81231;SDS011;70703;55.652;37.710;2023-07-13T13:25:04;9.80;;;5.47;;
81231;SDS011;70703;55.652;37.710;2023-07-13T13:25:18;11.80;;;5.75;;
81231;SDS011;70703;55.652;37.710;2023-07-13T13:25:30;12.02;;;5.80;;
81231;SDS011;70703;55.652;37.710;2023-07-13T13:25:43;12.25;;;5.95;;
81231;SDS011;70703;55.652;37.710;2023-07-13T13:25:55;14.60;;;6.05;;
81231;SDS011;70703;55.652;37.710;2023-07-13T13:26:08;14.65;;;6.20;;
81231;SDS011;70703;55.652;37.710;2023-07-13T13:26:22;13.38;;;5.90;;
81231;SDS011;70703;55.652;37.710;2023-07-13T13:26:34;12.57;;;5.72;;
81231;SDS011;70703;55.652;37.710;2023-07-13T13:26:47;11.77;;;5.78;;
81231;SDS011;70703;55.652;37.710;2023-07-13T13:27:00;13.40;;;6.00;;
81231;SDS011;70703;55.652;37.710;2023-07-13T13:27:16;14.55;;;5.88;;
81231;SDS011;70703;55.652;37.710;2023-07-13T13:27:31;12.68;;;5.85;;
81231;SDS011;70703;55.652;37.710;2023-07-13T13:27:42;12.85;;;5.97;;
81231;SDS011;70703;55.652;37.710;2023-07-13T13:27:55;13.95;;;5.78;;
81231;SDS011;70703;55.652;37.710;2023-07-13T13:28:11;13.13;;;5.82;;
81231;SDS011;70703;55.652;37.710;2023-07-13T13:28:26;11.45;;;6.13;;
81231;SDS011;70703;55.652;37.710;2023-07-13T13:28:38;12.52;;;6.00;;
81231;SDS011;70703;55.652;37.710;2023-07-13T13:28:50;11.55;;;5.68;;
81231;SDS011;70703;55.652;37.710;2023-07-13T13:29:04;11.80;;;5.90;;
81231;SDS011;70703;55.652;37.710;2023-07-13T13:29:24;12.30;;;5.60;;
81231;SDS011;70703;55.652;37.710;2023-07-13T13:29:37;11.45;;;5.50;;
81231;SDS011;70703;55.652;37.710;2023-07-13T13:29:50;13.32;;;5.72;;
81231;SDS011;70703;55.652;37.710;2023-07-13T13:30:03;12.88;;;5.82;;
81231;SDS011;70703;55.652;37.710;2023-07-13T13:30:22;13.27;;;5.70;;
81231;SDS011;70703;55.652;37.710;2023-07-13T13:30:35;13.75;;;5.50;;
81231;SDS011;70703;55.652;37.710;2023-07-13T13:30:49;13.07;;;5.38;;
81231;SDS011;70703;55.652;37.710;2023-07-13T13:31:02;11.80;;;5.22;;
81231;SDS011;70703;55.652;37.710;2023-07-13T13:31:14;12.68;;;5.45;;
81231;SDS011;70703;55.652;37.710;2023-07-13T13:31:26;12.30;;;5.68;;
81231;SDS011;70703;55.652;37.710;2023-07-13T13:31:38;10.82;;;5.90;;
81231;SDS011;70703;55.652;37.710;2023-07-13T13:31:50;9.80;;;5.40;;
81231;SDS011;70703;55.652;37.710;2023-07-13T13:32:04;12.13;;;5.40;;
81231;SDS011;70703;55.652;37.710;2023-07-13T13:32:17;12.27;;;5.43;;
81231;SDS011;70703;55.652;37.710;2023-07-13T13:32:29;10.50;;;5.50;;
81231;SDS011;70703;55.652;37.710;2023-07-13T13:32:42;10.00;;;5.50;;
81231;SDS011;70703;55.652;37.710;2023-07-13T13:32:55;11.35;;;5.82;;
81231;SDS011;70703;55.652;37.710;2023-07-13T13:33:08;13.27;;;6.00;;
81231;SDS011;70703;55.652;37.710;2023-07-13T13:33:22;14.00;;;6.13;;
81231;SDS011;70703;55.652;37.710;2023-07-13T13:33:34;13.50;;;6.05;;
81231;SDS011;70703;55.652;37.710;2023-07-13T13:33:46;11.70;;;5.80;;
81231;SDS011;70703;55.652;37.710;2023-07-13T13:33:59;11.75;;;5.50;;
81231;SDS011;70703;55.652;37.710;2023-07-13T13:34:13;11.77;;;5.75;;
81231;SDS011;70703;55.652;37.710;2023-07-13T13:34:26;11.18;;;5.75;;
81231;SDS011;70703;55.652;37.710;2023-07-13T13:34:39;10.48;;;5.60;;
81231;SDS011;70703;55.652;37.710;2023-07-13T13:34:51;13.57;;;5.68;;
81231;SDS011;70703;55.652;37.710;2023-07-13T13:35:05;15.10;;;5.80;;
81231;SDS011;70703;55.652;37.710;2023-07-13T13:35:23;14.13;;;5.60;;
81231;SDS011;70703;55.652;37.710;2023-07-13T13:35:35;13.50;;;5.68;;
81231;SDS011;70703;55.652;37.710;2023-07-13T13:35:48;12.75;;;5.55;;
81231;SDS011;70703;55.652;37.710;2023-07-13T13:36:00;11.35;;;5.38;;
81231;SDS011;70703;55.652;37.710;2023-07-13T13:36:13;9.95;;;5.18;;
81231;SDS011;70703;55.652;37.710;2023-07-13T13:36:26;9.32;;;5.47;;
81231;SDS011;70703;55.652;37.710;2023-07-13T13:36:39;11.27;;;5.50;;
81231;SDS011;70703;55.652;37.710;2023-07-13T13:36:52;11.85;;;5.38;;
81231;SDS011;70703;55.652;37.710;2023-07-13T13:37:04;11.13;;;5.10;;
81231;SDS011;70703;55.652;37.710;2023-07-13T13:37:28;12.82;;;5.18;;
81231;SDS011;70703;55.652;37.710;2023-07-13T13:37:39;13.02;;;5.18;;
81231;SDS011;70703;55.652;37.710;2023-07-13T13:37:52;12.02;;;5.00;;
81231;SDS011;70703;55.652;37.710;2023-07-13T13:38:04;10.52;;;5.20;;
81231;SDS011;70703;55.652;37.710;2023-07-13T13:38:21;10.75;;;5.03;;
81231;SDS011;70703;55.652;37.710;2023-07-13T13:38:36;9.50;;;4.70;;
81231;SDS011;70703;55.652;37.710;2023-07-13T13:38:48;9.52;;;4.82;;
81231;SDS011;70703;55.652;37.710;2023-07-13T13:39:02;11.05;;;4.88;;
81231;SDS011;70703;55.652;37.710;2023-07-13T13:39:28;11.98;;;4.93;;
81231;SDS011;70703;55.652;37.710;2023-07-13T13:39:46;12.80;;;5.30;;
81231;SDS011;70703;55.652;37.710;2023-07-13T13:39:58;11.32;;;5.32;;
81231;SDS011;70703;55.652;37.710;2023-07-13T13:40:14;12.57;;;5.32;;
81231;SDS011;70703;55.652;37.710;2023-07-13T13:40:27;10.65;;;5.13;;
81231;SDS011;70703;55.652;37.710;2023-07-13T13:40:39;10.95;;;4.97;;
81231;SDS011;70703;55.652;37.710;2023-07-13T13:40:53;12.45;;;4.85;;
81231;SDS011;70703;55.652;37.710;2023-07-13T13:41:07;12.85;;;4.90;;
81231;SDS011;70703;55.652;37.710;2023-07-13T13:41:22;11.88;;;5.07;;
81231;SDS011;70703;55.652;37.710;2023-07-13T13:41:33;10.77;;;4.88;;
81231;SDS011;70703;55.652;37.710;2023-07-13T13:41:46;12.02;;;5.00;;
81231;SDS011;70703;55.652;37.710;2023-07-13T13:41:57;12.30;;;5.15;;
81231;SDS011;70703;55.652;37.710;2023-07-13T13:42:09;12.38;;;5.07;;
81231;SDS011;70703;55.652;37.710;2023-07-13T13:42:20;12.05;;;5.15;;
81231;SDS011;70703;55.652;37.710;2023-07-13T13:42:35;12.05;;;5.03;;
81231;SDS011;70703;55.652;37.710;2023-07-13T13:42:48;12.20;;;5.18;;
81231;SDS011;70703;55.652;37.710;2023-07-13T13:43:08;12.55;;;5.45;;
81231;SDS011;70703;55.652;37.710;2023-07-13T13:43:26;10.82;;;5.10;;
81231;SDS011;70703;55.652;37.710;2023-07-13T13:43:39;13.25;;;5.07;;
81231;SDS011;70703;55.652;37.710;2023-07-13T13:43:52;11.82;;;4.70;;
81231;SDS011;70703;55.652;37.710;2023-07-13T13:44:07;10.73;;;4.63;;
81231;SDS011;70703;55.652;37.710;2023-07-13T13:44:22;11.13;;;5.00;;
81231;SDS011;70703;55.652;37.710;2023-07-13T13:44:35;10.68;;;5.20;;
81231;SDS011;70703;55.652;37.710;2023-07-13T13:44:46;11.65;;;5.13;;
81231;SDS011;70703;55.652;37.710;2023-07-13T13:44:58;13.20;;;5.05;;
81231;SDS011;70703;55.652;37.710;2023-07-13T13:45:11;12.73;;;5.10;;
81231;SDS011;70703;55.652;37.710;2023-07-13T13:45:23;11.63;;;4.90;;
81231;SDS011;70703;55.652;37.710;2023-07-13T13:45:35;12.93;;;4.90;;
81231;SDS011;70703;55.652;37.710;2023-07-13T13:45:47;14.20;;;4.93;;
81231;SDS011;70703;55.652;37.710;2023-07-13T13:46:02;12.55;;;4.80;;
81231;SDS011;70703;55.652;37.710;2023-07-13T13:46:24;11.80;;;4.75;;
81231;SDS011;70703;55.652;37.710;2023-07-13T13:46:36;11.20;;;4.80;;
81231;SDS011;70703;55.652;37.710;2023-07-13T13:46:48;11.20;;;4.95;;
81231;SDS011;70703;55.652;37.710;2023-07-13T13:47:02;10.15;;;4.97;;
81231;SDS011;70703;55.652;37.710;2023-07-13T13:47:20;10.00;;;4.95;;
81231;SDS011;70703;55.652;37.710;2023-07-13T13:47:39;12.10;;;5.10;;
81231;SDS011;70703;55.652;37.710;2023-07-13T13:47:51;11.25;;;5.10;;
81231;SDS011;70703;55.652;37.710;2023-07-13T13:48:05;10.85;;;5.10;;
81231;SDS011;70703;55.652;37.710;2023-07-13T13:48:17;11.85;;;5.15;;
81231;SDS011;70703;55.652;37.710;2023-07-13T13:48:31;12.25;;;5.22;;
81231;SDS011;70703;55.652;37.710;2023-07-13T13:48:43;13.32;;;5.28;;
81231;SDS011;70703;55.652;37.710;2023-07-13T13:48:56;12.40;;;5.20;;
81231;SDS011;70703;55.652;37.710;2023-07-13T13:49:08;14.18;;;5.35;;
81231;SDS011;70703;55.652;37.710;2023-07-13T13:49:25;14.73;;;5.20;;
81231;SDS011;70703;55.652;37.710;2023-07-13T13:49:40;11.32;;;5.15;;
81231;SDS011;70703;55.652;37.710;2023-07-13T13:49:50;9.82;;;4.82;;
81231;SDS011;70703;55.652;37.710;2023-07-13T13:50:04;10.48;;;4.82;;
81231;SDS011;70703;55.652;37.710;2023-07-13T13:50:22;14.07;;;5.05;;
81231;SDS011;70703;55.652;37.710;2023-07-13T13:50:33;13.55;;;5.00;;
81231;SDS011;70703;55.652;37.710;2023-07-13T13:50:45;15.50;;;5.00;;
81231;SDS011;70703;55.652;37.710;2023-07-13T13:50:57;13.52;;;5.18;;
81231;SDS011;70703;55.652;37.710;2023-07-13T13:51:14;11.90;;;5.30;;
81231;SDS011;70703;55.652;37.710;2023-07-13T13:51:27;11.02;;;5.20;;
81231;SDS011;70703;55.652;37.710;2023-07-13T13:51:41;10.50;;;5.25;;
81231;SDS011;70703;55.652;37.710;2023-07-13T13:51:52;11.65;;;5.40;;